sensor_id;sensor_type;location;lat;lon;timestamp;temperature;humidity
4293;DHT22;2160;51.172;6.808;2022-12-18T05:01:01;0.70;99.90
4293;DHT22;2160;51.172;6.808;2022-12-18T05:03:29;0.70;99.90
4293;DHT22;2160;51.172;6.808;2022-12-18T05:05:56;0.70;99.90
4293;DHT22;2160;51.172;6.808;2022-12-18T05:08:23;0.70;99.90
4293;DHT22;2160;51.172;6.808;2022-12-18T05:10:50;0.70;99.90
4293;DHT22;2160;51.172;6.808;2022-12-18T05:13:24;0.70;99.90
4293;DHT22;2160;51.172;6.808;2022-12-18T05:15:51;0.60;99.90
4293;DHT22;2160;51.172;6.808;2022-12-18T05:18:20;0.60;99.90
4293;DHT22;2160;51.172;6.808;2022-12-18T05:20:47;0.50;99.90
4293;DHT22;2160;51.172;6.808;2022-12-18T05:23:14;0.60;99.90
4293;DHT22;2160;51.172;6.808;2022-12-18T05:25:41;0.60;99.90
4293;DHT22;2160;51.172;6.808;2022-12-18T05:28:08;0.60;99.90
4293;DHT22;2160;51.172;6.808;2022-12-18T05:30:34;0.60;99.90
4293;DHT22;2160;51.172;6.808;2022-12-18T05:33:01;0.60;99.90
4293;DHT22;2160;51.172;6.808;2022-12-18T05:35:29;0.60;99.90
4293;DHT22;2160;51.172;6.808;2022-12-18T05:37:56;0.60;99.90
4293;DHT22;2160;51.172;6.808;2022-12-18T05:40:23;0.60;99.90
4293;DHT22;2160;51.172;6.808;2022-12-18T05:42:50;0.50;99.90
4293;DHT22;2160;51.172;6.808;2022-12-18T05:45:17;0.40;99.90
4293;DHT22;2160;51.172;6.808;2022-12-18T05:47:44;0.40;99.90
4293;DHT22;2160;51.172;6.808;2022-12-18T05:50:11;0.30;99.90
4293;DHT22;2160;51.172;6.808;2022-12-18T05:52:39;0.30;99.90
4293;DHT22;2160;51.172;6.808;2022-12-18T05:55:06;0.30;99.90
4293;DHT22;2160;51.172;6.808;2022-12-18T05:57:33;0.40;99.90
4293;DHT22;2160;51.172;6.808;2022-12-18T06:00:00;0.60;99.90
4293;DHT22;2160;51.172;6.808;2022-12-18T06:02:37;0.30;99.90
4293;DHT22;2160;51.172;6.808;2022-12-18T06:05:05;0.20;99.90
4293;DHT22;2160;51.172;6.808;2022-12-18T06:07:32;0.10;99.90
4293;DHT22;2160;51.172;6.808;2022-12-18T06:10:00;0.00;99.90
4293;DHT22;2160;51.172;6.808;2022-12-18T06:12:27;0.00;99.90
4293;DHT22;2160;51.172;6.808;2022-12-18T06:14:54;0.10;99.90
4293;DHT22;2160;51.172;6.808;2022-12-18T06:17:21;0.20;99.90
4293;DHT22;2160;51.172;6.808;2022-12-18T06:19:48;0.20;99.90
4293;DHT22;2160;51.172;6.808;2022-12-18T06:22:15;0.20;99.90
4293;DHT22;2160;51.172;6.808;2022-12-18T06:24:42;0.30;99.90
4293;DHT22;2160;51.172;6.808;2022-12-18T06:27:10;0.20;99.90
4293;DHT22;2160;51.172;6.808;2022-12-18T06:29:37;0.30;99.90
4293;DHT22;2160;51.172;6.808;2022-12-18T06:32:04;0.20;99.90
4293;DHT22;2160;51.172;6.808;2022-12-18T06:34:31;0.20;99.90
4293;DHT22;2160;51.172;6.808;2022-12-18T06:36:58;0.10;99.90
4293;DHT22;2160;51.172;6.808;2022-12-18T06:39:27;0.20;99.90
4293;DHT22;2160;51.172;6.808;2022-12-18T06:41:54;0.20;99.90
4293;DHT22;2160;51.172;6.808;2022-12-18T06:44:22;0.20;99.90
4293;DHT22;2160;51.172;6.808;2022-12-18T06:46:49;0.10;99.90
4293;DHT22;2160;51.172;6.808;2022-12-18T06:49:16;0.10;99.90
4293;DHT22;2160;51.172;6.808;2022-12-18T06:51:43;0.10;99.90
4293;DHT22;2160;51.172;6.808;2022-12-18T06:54:10;0.00;99.90
4293;DHT22;2160;51.172;6.808;2022-12-18T06:56:37;0.00;99.90
4293;DHT22;2160;51.172;6.808;2022-12-18T06:59:04;0.00;99.90
4293;DHT22;2160;51.172;6.808;2022-12-18T07:01:32;0.10;99.90
4293;DHT22;2160;51.172;6.808;2022-12-18T07:03:59;0.10;99.90
4293;DHT22;2160;51.172;6.808;2022-12-18T07:06:26;0.00;99.90
4293;DHT22;2160;51.172;6.808;2022-12-18T07:08:53;0.00;99.90
4293;DHT22;2160;51.172;6.808;2022-12-18T07:11:21;0.00;99.90
4293;DHT22;2160;51.172;6.808;2022-12-18T07:13:48;-0.10;99.90
4293;DHT22;2160;51.172;6.808;2022-12-18T07:16:17;0.00;99.90
4293;DHT22;2160;51.172;6.808;2022-12-18T07:18:45;0.10;99.90
4293;DHT22;2160;51.172;6.808;2022-12-18T07:21:14;0.20;99.90
4293;DHT22;2160;51.172;6.808;2022-12-18T07:23:41;0.10;99.90
4293;DHT22;2160;51.172;6.808;2022-12-18T07:26:11;0.10;99.90
4293;DHT22;2160;51.172;6.808;2022-12-18T07:28:39;0.20;99.90
4293;DHT22;2160;51.172;6.808;2022-12-18T07:31:07;0.20;99.90
4293;DHT22;2160;51.172;6.808;2022-12-18T07:33:35;0.20;99.90
4293;DHT22;2160;51.172;6.808;2022-12-18T07:36:05;0.10;99.90
4293;DHT22;2160;51.172;6.808;2022-12-18T07:38:33;0.00;99.90
4293;DHT22;2160;51.172;6.808;2022-12-18T07:41:00;0.00;99.90
4293;DHT22;2160;51.172;6.808;2022-12-18T07:43:27;0.00;99.90
4293;DHT22;2160;51.172;6.808;2022-12-18T07:45:54;0.10;99.90
4293;DHT22;2160;51.172;6.808;2022-12-18T07:48:21;0.20;99.90
4293;DHT22;2160;51.172;6.808;2022-12-18T07:50:48;0.30;99.90
4293;DHT22;2160;51.172;6.808;2022-12-18T07:53:16;0.10;99.90
4293;DHT22;2160;51.172;6.808;2022-12-18T07:55:43;0.10;99.90
4293;DHT22;2160;51.172;6.808;2022-12-18T07:58:10;0.20;99.90
4293;DHT22;2160;51.172;6.808;2022-12-18T08:00:37;0.20;99.90
4293;DHT22;2160;51.172;6.808;2022-12-18T08:03:04;0.30;99.90
4293;DHT22;2160;51.172;6.808;2022-12-18T08:05:31;0.30;99.90
4293;DHT22;2160;51.172;6.808;2022-12-18T08:07:58;0.30;99.90
4293;DHT22;2160;51.172;6.808;2022-12-18T08:10:26;0.30;99.90
4293;DHT22;2160;51.172;6.808;2022-12-18T08:12:53;0.30;99.90
4293;DHT22;2160;51.172;6.808;2022-12-18T08:15:20;0.20;99.90
4293;DHT22;2160;51.172;6.808;2022-12-18T08:17:47;0.20;99.90
4293;DHT22;2160;51.172;6.808;2022-12-18T08:20:14;0.20;99.90
4293;DHT22;2160;51.172;6.808;2022-12-18T08:22:41;0.30;99.90
4293;DHT22;2160;51.172;6.808;2022-12-18T08:25:09;0.30;99.90
4293;DHT22;2160;51.172;6.808;2022-12-18T08:27:37;0.50;99.90
4293;DHT22;2160;51.172;6.808;2022-12-18T08:30:05;0.50;99.90
4293;DHT22;2160;51.172;6.808;2022-12-18T08:32:32;0.50;99.90
4293;DHT22;2160;51.172;6.808;2022-12-18T08:34:59;0.50;99.90
4293;DHT22;2160;51.172;6.808;2022-12-18T08:37:26;0.50;99.90
4293;DHT22;2160;51.172;6.808;2022-12-18T08:39:53;0.60;99.90
4293;DHT22;2160;51.172;6.808;2022-12-18T08:42:20;0.60;99.90
4293;DHT22;2160;51.172;6.808;2022-12-18T08:45:07;0.70;99.90
4293;DHT22;2160;51.172;6.808;2022-12-18T08:47:34;0.70;99.90
4293;DHT22;2160;51.172;6.808;2022-12-18T08:50:01;0.60;99.90
4293;DHT22;2160;51.172;6.808;2022-12-18T08:52:28;0.60;99.90
4293;DHT22;2160;51.172;6.808;2022-12-18T08:54:55;0.60;99.90
4293;DHT22;2160;51.172;6.808;2022-12-18T08:57:21;0.60;99.90
4293;DHT22;2160;51.172;6.808;2022-12-18T08:59:48;0.60;99.90
4293;DHT22;2160;51.172;6.808;2022-12-18T09:02:17;0.60;99.90
4293;DHT22;2160;51.172;6.808;2022-12-18T09:04:44;0.80;99.90
4293;DHT22;2160;51.172;6.808;2022-12-18T09:07:13;0.90;99.90
4293;DHT22;2160;51.172;6.808;2022-12-18T09:09:39;1.10;99.90
4293;DHT22;2160;51.172;6.808;2022-12-18T09:12:06;1.00;99.90
4293;DHT22;2160;51.172;6.808;2022-12-18T09:14:33;1.00;99.90
4293;DHT22;2160;51.172;6.808;2022-12-18T09:17:00;0.90;99.90
4293;DHT22;2160;51.172;6.808;2022-12-18T09:19:28;0.90;99.90
4293;DHT22;2160;51.172;6.808;2022-12-18T09:21:55;1.00;99.90
4293;DHT22;2160;51.172;6.808;2022-12-18T09:24:22;1.10;99.90
4293;DHT22;2160;51.172;6.808;2022-12-18T09:26:53;1.20;99.90
4293;DHT22;2160;51.172;6.808;2022-12-18T09:29:20;1.10;99.90
4293;DHT22;2160;51.172;6.808;2022-12-18T09:31:47;1.00;99.90
4293;DHT22;2160;51.172;6.808;2022-12-18T09:34:15;0.70;99.90
4293;DHT22;2160;51.172;6.808;2022-12-18T09:36:43;0.80;99.90
4293;DHT22;2160;51.172;6.808;2022-12-18T09:39:10;0.90;99.90
4293;DHT22;2160;51.172;6.808;2022-12-18T09:41:43;1.10;99.90
4293;DHT22;2160;51.172;6.808;2022-12-18T09:44:21;1.20;99.90
4293;DHT22;2160;51.172;6.808;2022-12-18T09:46:54;1.20;99.90
4293;DHT22;2160;51.172;6.808;2022-12-18T09:49:24;1.30;99.90
4293;DHT22;2160;51.172;6.808;2022-12-18T09:51:56;1.30;99.90
4293;DHT22;2160;51.172;6.808;2022-12-18T09:54:26;1.40;99.90
4293;DHT22;2160;51.172;6.808;2022-12-18T09:56:56;1.40;99.90
4293;DHT22;2160;51.172;6.808;2022-12-18T09:59:26;1.50;99.90
4293;DHT22;2160;51.172;6.808;2022-12-18T10:01:54;1.50;99.90
4293;DHT22;2160;51.172;6.808;2022-12-18T10:04:20;1.50;99.90
4293;DHT22;2160;51.172;6.808;2022-12-18T10:06:54;1.70;99.90
4293;DHT22;2160;51.172;6.808;2022-12-18T10:09:30;1.70;99.90
4293;DHT22;2160;51.172;6.808;2022-12-18T10:12:07;1.70;99.90
4293;DHT22;2160;51.172;6.808;2022-12-18T10:14:41;1.60;99.90
4293;DHT22;2160;51.172;6.808;2022-12-18T10:17:17;1.70;99.90
4293;DHT22;2160;51.172;6.808;2022-12-18T10:19:50;1.70;99.90
4293;DHT22;2160;51.172;6.808;2022-12-18T10:22:30;1.80;99.90
4293;DHT22;2160;51.172;6.808;2022-12-18T10:25:05;1.90;99.90
4293;DHT22;2160;51.172;6.808;2022-12-18T10:27:36;1.90;99.90
4293;DHT22;2160;51.172;6.808;2022-12-18T10:30:12;2.10;99.90
4293;DHT22;2160;51.172;6.808;2022-12-18T10:32:40;2.00;99.90
4293;DHT22;2160;51.172;6.808;2022-12-18T10:35:18;1.90;99.90
4293;DHT22;2160;51.172;6.808;2022-12-18T10:38:07;1.90;99.90
4293;DHT22;2160;51.172;6.808;2022-12-18T10:40:51;1.90;99.90
4293;DHT22;2160;51.172;6.808;2022-12-18T10:43:24;2.00;99.90
4293;DHT22;2160;51.172;6.808;2022-12-18T10:46:00;2.00;99.90
4293;DHT22;2160;51.172;6.808;2022-12-18T10:48:28;2.00;99.90
4293;DHT22;2160;51.172;6.808;2022-12-18T10:50:57;2.10;99.90
4293;DHT22;2160;51.172;6.808;2022-12-18T10:53:27;2.20;99.90
4293;DHT22;2160;51.172;6.808;2022-12-18T10:55:57;2.20;99.90
4293;DHT22;2160;51.172;6.808;2022-12-18T10:58:29;2.20;99.90
4293;DHT22;2160;51.172;6.808;2022-12-18T11:01:09;2.20;99.90
4293;DHT22;2160;51.172;6.808;2022-12-18T11:03:38;2.40;99.90
4293;DHT22;2160;51.172;6.808;2022-12-18T11:06:08;2.40;99.90
4293;DHT22;2160;51.172;6.808;2022-12-18T11:08:37;2.20;99.90
4293;DHT22;2160;51.172;6.808;2022-12-18T11:11:07;2.30;99.90
4293;DHT22;2160;51.172;6.808;2022-12-18T11:13:54;2.50;99.90
4293;DHT22;2160;51.172;6.808;2022-12-18T11:16:23;2.60;99.90
4293;DHT22;2160;51.172;6.808;2022-12-18T11:18:50;2.50;99.90
4293;DHT22;2160;51.172;6.808;2022-12-18T11:21:17;2.40;99.90
4293;DHT22;2160;51.172;6.808;2022-12-18T11:23:48;2.50;99.90
4293;DHT22;2160;51.172;6.808;2022-12-18T11:26:16;2.50;99.90
4293;DHT22;2160;51.172;6.808;2022-12-18T11:28:45;2.40;99.90
4293;DHT22;2160;51.172;6.808;2022-12-18T11:31:23;2.30;99.90
4293;DHT22;2160;51.172;6.808;2022-12-18T11:34:02;2.40;99.90
4293;DHT22;2160;51.172;6.808;2022-12-18T11:36:33;2.50;99.90
4293;DHT22;2160;51.172;6.808;2022-12-18T11:39:10;2.50;99.90
4293;DHT22;2160;51.172;6.808;2022-12-18T11:41:43;2.60;99.90
4293;DHT22;2160;51.172;6.808;2022-12-18T11:44:38;2.70;99.90
4293;DHT22;2160;51.172;6.808;2022-12-18T11:47:12;2.70;99.90
4293;DHT22;2160;51.172;6.808;2022-12-18T11:49:41;2.90;99.90
4293;DHT22;2160;51.172;6.808;2022-12-18T11:52:15;3.00;99.90
4293;DHT22;2160;51.172;6.808;2022-12-18T11:54:44;3.00;99.90
4293;DHT22;2160;51.172;6.808;2022-12-18T11:57:19;3.20;99.90
4293;DHT22;2160;51.172;6.808;2022-12-18T11:59:53;2.80;99.90
4293;DHT22;2160;51.172;6.808;2022-12-18T12:02:41;2.80;99.90
4293;DHT22;2160;51.172;6.808;2022-12-18T12:05:31;2.70;99.90
4293;DHT22;2160;51.172;6.808;2022-12-18T12:08:14;2.80;99.90
4293;DHT22;2160;51.172;6.808;2022-12-18T12:10:51;2.70;99.90
4293;DHT22;2160;51.172;6.808;2022-12-18T12:13:30;2.90;99.90
4293;DHT22;2160;51.172;6.808;2022-12-18T12:16:15;2.90;99.90
4293;DHT22;2160;51.172;6.808;2022-12-18T12:18:56;3.10;99.90
4293;DHT22;2160;51.172;6.808;2022-12-18T12:21:33;3.20;99.90
4293;DHT22;2160;51.172;6.808;2022-12-18T12:24:08;3.30;99.90
4293;DHT22;2160;51.172;6.808;2022-12-18T12:26:47;3.30;99.90
4293;DHT22;2160;51.172;6.808;2022-12-18T12:29:29;3.40;99.90
4293;DHT22;2160;51.172;6.808;2022-12-18T12:32:07;3.60;99.90
4293;DHT22;2160;51.172;6.808;2022-12-18T12:34:47;3.50;99.90
4293;DHT22;2160;51.172;6.808;2022-12-18T12:37:25;3.60;99.90
4293;DHT22;2160;51.172;6.808;2022-12-18T12:39:56;3.70;99.90
4293;DHT22;2160;51.172;6.808;2022-12-18T12:42:40;3.70;99.90
4293;DHT22;2160;51.172;6.808;2022-12-18T12:45:29;3.50;99.90
4293;DHT22;2160;51.172;6.808;2022-12-18T12:47:57;3.40;99.90
4293;DHT22;2160;51.172;6.808;2022-12-18T12:50:26;3.30;99.90
4293;DHT22;2160;51.172;6.808;2022-12-18T12:52:54;3.10;99.90
4293;DHT22;2160;51.172;6.808;2022-12-18T12:55:23;3.10;99.90
4293;DHT22;2160;51.172;6.808;2022-12-18T12:57:57;3.20;99.90
4293;DHT22;2160;51.172;6.808;2022-12-18T13:00:30;3.30;99.90
4293;DHT22;2160;51.172;6.808;2022-12-18T13:03:06;3.50;99.90
4293;DHT22;2160;51.172;6.808;2022-12-18T13:05:41;3.20;99.90
4293;DHT22;2160;51.172;6.808;2022-12-18T13:08:21;3.30;99.90
4293;DHT22;2160;51.172;6.808;2022-12-18T13:10:48;3.20;99.90
4293;DHT22;2160;51.172;6.808;2022-12-18T13:13:16;3.30;99.90
4293;DHT22;2160;51.172;6.808;2022-12-18T13:15:44;3.30;99.90
4293;DHT22;2160;51.172;6.808;2022-12-18T13:18:19;3.50;99.90
4293;DHT22;2160;51.172;6.808;2022-12-18T13:20:49;3.60;99.90
4293;DHT22;2160;51.172;6.808;2022-12-18T13:23:27;3.50;99.90
4293;DHT22;2160;51.172;6.808;2022-12-18T13:25:55;3.40;99.90
4293;DHT22;2160;51.172;6.808;2022-12-18T13:28:53;3.30;99.90
4293;DHT22;2160;51.172;6.808;2022-12-18T13:34:24;3.00;99.90
4293;DHT22;2160;51.172;6.808;2022-12-18T13:36:52;3.10;99.90
4293;DHT22;2160;51.172;6.808;2022-12-18T13:39:31;3.20;99.90
4293;DHT22;2160;51.172;6.808;2022-12-18T13:42:39;3.10;99.90
4293;DHT22;2160;51.172;6.808;2022-12-18T13:45:46;3.00;99.90
4293;DHT22;2160;51.172;6.808;2022-12-18T13:48:17;3.20;99.90
4293;DHT22;2160;51.172;6.808;2022-12-18T13:50:52;3.20;99.90
4293;DHT22;2160;51.172;6.808;2022-12-18T13:53:22;3.20;99.90
4293;DHT22;2160;51.172;6.808;2022-12-18T13:55:50;3.00;99.90
4293;DHT22;2160;51.172;6.808;2022-12-18T13:58:17;3.20;99.90
4293;DHT22;2160;51.172;6.808;2022-12-18T14:00:45;3.00;99.90
4293;DHT22;2160;51.172;6.808;2022-12-18T14:03:18;3.00;99.90
4293;DHT22;2160;51.172;6.808;2022-12-18T14:05:46;3.00;99.90
4293;DHT22;2160;51.172;6.808;2022-12-18T14:08:19;3.00;99.90
4293;DHT22;2160;51.172;6.808;2022-12-18T14:10:48;3.00;99.90
4293;DHT22;2160;51.172;6.808;2022-12-18T14:13:21;3.00;99.90
4293;DHT22;2160;51.172;6.808;2022-12-18T14:15:51;3.00;99.90
4293;DHT22;2160;51.172;6.808;2022-12-18T14:18:21;3.10;99.90
4293;DHT22;2160;51.172;6.808;2022-12-18T14:20:51;3.20;99.90
4293;DHT22;2160;51.172;6.808;2022-12-18T14:23:27;3.10;99.90
4293;DHT22;2160;51.172;6.808;2022-12-18T14:25:55;3.30;99.90
4293;DHT22;2160;51.172;6.808;2022-12-18T14:28:22;3.20;99.90
4293;DHT22;2160;51.172;6.808;2022-12-18T14:30:51;3.10;99.90
4293;DHT22;2160;51.172;6.808;2022-12-18T14:33:20;3.10;99.90
4293;DHT22;2160;51.172;6.808;2022-12-18T14:35:54;3.20;99.90
4293;DHT22;2160;51.172;6.808;2022-12-18T14:38:28;3.00;99.90
4293;DHT22;2160;51.172;6.808;2022-12-18T14:40:57;3.00;99.90
4293;DHT22;2160;51.172;6.808;2022-12-18T14:43:25;3.00;99.90
4293;DHT22;2160;51.172;6.808;2022-12-18T14:45:53;2.70;99.90
4293;DHT22;2160;51.172;6.808;2022-12-18T14:48:24;2.80;99.90
4293;DHT22;2160;51.172;6.808;2022-12-18T14:50:58;2.80;99.90
4293;DHT22;2160;51.172;6.808;2022-12-18T14:53:35;2.70;99.90
4293;DHT22;2160;51.172;6.808;2022-12-18T14:56:03;2.70;99.90
4293;DHT22;2160;51.172;6.808;2022-12-18T14:58:36;2.80;99.90
4293;DHT22;2160;51.172;6.808;2022-12-18T15:01:05;2.90;99.90
4293;DHT22;2160;51.172;6.808;2022-12-18T15:03:34;3.00;99.90
4293;DHT22;2160;51.172;6.808;2022-12-18T15:06:16;3.10;99.90
4293;DHT22;2160;51.172;6.808;2022-12-18T15:08:43;2.90;99.90
4293;DHT22;2160;51.172;6.808;2022-12-18T15:11:26;2.90;99.90
4293;DHT22;2160;51.172;6.808;2022-12-18T15:13:53;2.90;99.90
4293;DHT22;2160;51.172;6.808;2022-12-18T15:16:21;2.90;99.90
4293;DHT22;2160;51.172;6.808;2022-12-18T15:18:48;2.90;99.90
4293;DHT22;2160;51.172;6.808;2022-12-18T15:21:18;2.60;99.90
4293;DHT22;2160;51.172;6.808;2022-12-18T15:23:47;2.50;99.90
4293;DHT22;2160;51.172;6.808;2022-12-18T15:26:16;2.60;99.90
4293;DHT22;2160;51.172;6.808;2022-12-18T15:28:45;2.60;99.90
4293;DHT22;2160;51.172;6.808;2022-12-18T15:31:28;2.50;99.90
4293;DHT22;2160;51.172;6.808;2022-12-18T15:34:19;2.60;99.90
4293;DHT22;2160;51.172;6.808;2022-12-18T15:36:46;2.60;99.90
4293;DHT22;2160;51.172;6.808;2022-12-18T15:39:13;2.80;99.90
4293;DHT22;2160;51.172;6.808;2022-12-18T15:41:40;3.00;99.90
4293;DHT22;2160;51.172;6.808;2022-12-18T15:44:28;2.80;99.90
4293;DHT22;2160;51.172;6.808;2022-12-18T15:46:55;2.70;99.90
4293;DHT22;2160;51.172;6.808;2022-12-18T15:49:22;2.60;99.90
4293;DHT22;2160;51.172;6.808;2022-12-18T15:51:51;2.40;99.90
4293;DHT22;2160;51.172;6.808;2022-12-18T15:54:19;2.30;99.90
4293;DHT22;2160;51.172;6.808;2022-12-18T15:57:09;2.30;99.90
4293;DHT22;2160;51.172;6.808;2022-12-18T15:59:50;2.30;99.90
4293;DHT22;2160;51.172;6.808;2022-12-18T16:02:20;2.40;99.90
4293;DHT22;2160;51.172;6.808;2022-12-18T16:04:48;2.40;99.90
4293;DHT22;2160;51.172;6.808;2022-12-18T16:07:15;2.60;99.90
4293;DHT22;2160;51.172;6.808;2022-12-18T16:09:42;2.40;99.90
4293;DHT22;2160;51.172;6.808;2022-12-18T16:12:15;2.00;99.90
4293;DHT22;2160;51.172;6.808;2022-12-18T16:14:42;2.00;99.90
4293;DHT22;2160;51.172;6.808;2022-12-18T16:17:11;2.20;99.90
4293;DHT22;2160;51.172;6.808;2022-12-18T16:19:39;2.30;99.90
4293;DHT22;2160;51.172;6.808;2022-12-18T16:22:18;2.30;99.90
4293;DHT22;2160;51.172;6.808;2022-12-18T16:24:47;2.30;99.90
4293;DHT22;2160;51.172;6.808;2022-12-18T16:27:14;2.30;99.90
4293;DHT22;2160;51.172;6.808;2022-12-18T16:29:41;2.40;99.90
4293;DHT22;2160;51.172;6.808;2022-12-18T16:32:12;2.60;99.90
4293;DHT22;2160;51.172;6.808;2022-12-18T16:34:41;2.70;99.90
4293;DHT22;2160;51.172;6.808;2022-12-18T16:37:09;2.70;99.90
4293;DHT22;2160;51.172;6.808;2022-12-18T16:39:37;2.70;99.90
4293;DHT22;2160;51.172;6.808;2022-12-18T16:42:06;2.60;99.90
4293;DHT22;2160;51.172;6.808;2022-12-18T16:44:33;2.50;99.90
4293;DHT22;2160;51.172;6.808;2022-12-18T16:47:01;2.40;99.90
4293;DHT22;2160;51.172;6.808;2022-12-18T16:49:28;2.60;99.90
4293;DHT22;2160;51.172;6.808;2022-12-18T16:51:57;2.50;99.90
4293;DHT22;2160;51.172;6.808;2022-12-18T16:54:24;2.60;99.90
4293;DHT22;2160;51.172;6.808;2022-12-18T16:56:51;2.70;99.90
4293;DHT22;2160;51.172;6.808;2022-12-18T16:59:18;2.60;99.90
4293;DHT22;2160;51.172;6.808;2022-12-18T17:01:46;2.50;99.90
4293;DHT22;2160;51.172;6.808;2022-12-18T17:04:13;2.40;99.90
4293;DHT22;2160;51.172;6.808;2022-12-18T17:06:41;2.40;99.90
4293;DHT22;2160;51.172;6.808;2022-12-18T17:09:13;2.70;99.90
4293;DHT22;2160;51.172;6.808;2022-12-18T17:11:40;2.50;99.90
4293;DHT22;2160;51.172;6.808;2022-12-18T17:14:09;2.50;99.90
4293;DHT22;2160;51.172;6.808;2022-12-18T17:16:37;2.50;99.90
4293;DHT22;2160;51.172;6.808;2022-12-18T17:19:04;2.50;99.90
4293;DHT22;2160;51.172;6.808;2022-12-18T17:21:31;2.30;99.90
4293;DHT22;2160;51.172;6.808;2022-12-18T17:23:59;2.40;99.90
4293;DHT22;2160;51.172;6.808;2022-12-18T17:26:27;2.40;99.90
4293;DHT22;2160;51.172;6.808;2022-12-18T17:28:55;2.30;99.90
4293;DHT22;2160;51.172;6.808;2022-12-18T17:31:25;2.30;99.90
4293;DHT22;2160;51.172;6.808;2022-12-18T17:33:52;2.40;99.90
4293;DHT22;2160;51.172;6.808;2022-12-18T17:36:20;2.50;99.90
4293;DHT22;2160;51.172;6.808;2022-12-18T17:38:50;2.30;99.90
4293;DHT22;2160;51.172;6.808;2022-12-18T17:41:18;2.30;99.90
4293;DHT22;2160;51.172;6.808;2022-12-18T17:43:51;2.20;99.90
4293;DHT22;2160;51.172;6.808;2022-12-18T17:46:18;2.40;99.90
4293;DHT22;2160;51.172;6.808;2022-12-18T17:48:45;2.50;99.90
4293;DHT22;2160;51.172;6.808;2022-12-18T17:51:13;2.40;99.90
4293;DHT22;2160;51.172;6.808;2022-12-18T17:53:40;2.30;99.90
4293;DHT22;2160;51.172;6.808;2022-12-18T17:56:09;2.40;99.90
4293;DHT22;2160;51.172;6.808;2022-12-18T17:58:38;1.90;99.90
4293;DHT22;2160;51.172;6.808;2022-12-18T18:01:06;1.80;99.90
4293;DHT22;2160;51.172;6.808;2022-12-18T18:03:35;1.80;99.90
4293;DHT22;2160;51.172;6.808;2022-12-18T18:06:03;1.70;99.90
4293;DHT22;2160;51.172;6.808;2022-12-18T18:08:30;1.80;99.90
4293;DHT22;2160;51.172;6.808;2022-12-18T18:10:57;2.00;99.90
4293;DHT22;2160;51.172;6.808;2022-12-18T18:13:46;2.00;99.90
4293;DHT22;2160;51.172;6.808;2022-12-18T18:16:32;2.00;99.90
4293;DHT22;2160;51.172;6.808;2022-12-18T18:19:02;1.70;99.90
4293;DHT22;2160;51.172;6.808;2022-12-18T18:21:30;2.00;99.90
4293;DHT22;2160;51.172;6.808;2022-12-18T18:23:59;2.00;99.90
4293;DHT22;2160;51.172;6.808;2022-12-18T18:26:26;2.10;99.90
4293;DHT22;2160;51.172;6.808;2022-12-18T18:28:56;2.20;99.90
4293;DHT22;2160;51.172;6.808;2022-12-18T18:31:23;2.00;99.90
4293;DHT22;2160;51.172;6.808;2022-12-18T18:33:52;2.20;99.90
4293;DHT22;2160;51.172;6.808;2022-12-18T18:36:19;2.10;99.90
4293;DHT22;2160;51.172;6.808;2022-12-18T18:38:45;1.90;99.90
4293;DHT22;2160;51.172;6.808;2022-12-18T18:41:12;1.90;99.90
4293;DHT22;2160;51.172;6.808;2022-12-18T18:43:39;2.10;99.90
4293;DHT22;2160;51.172;6.808;2022-12-18T18:46:06;2.30;99.90
4293;DHT22;2160;51.172;6.808;2022-12-18T18:48:36;2.30;99.90
4293;DHT22;2160;51.172;6.808;2022-12-18T18:51:07;2.30;99.90
4293;DHT22;2160;51.172;6.808;2022-12-18T18:53:36;2.40;99.90
4293;DHT22;2160;51.172;6.808;2022-12-18T18:56:04;2.40;99.90
4293;DHT22;2160;51.172;6.808;2022-12-18T18:58:31;2.20;99.90
4293;DHT22;2160;51.172;6.808;2022-12-18T19:01:01;2.00;99.90
4293;DHT22;2160;51.172;6.808;2022-12-18T19:03:28;1.80;99.90
4293;DHT22;2160;51.172;6.808;2022-12-18T19:05:58;1.90;99.90
4293;DHT22;2160;51.172;6.808;2022-12-18T19:08:28;2.00;99.90
4293;DHT22;2160;51.172;6.808;2022-12-18T19:10:58;2.00;99.90
4293;DHT22;2160;51.172;6.808;2022-12-18T19:13:27;2.10;99.90
4293;DHT22;2160;51.172;6.808;2022-12-18T19:15:55;2.20;99.90
4293;DHT22;2160;51.172;6.808;2022-12-18T19:18:27;2.40;99.90
4293;DHT22;2160;51.172;6.808;2022-12-18T19:20:55;2.30;99.90
4293;DHT22;2160;51.172;6.808;2022-12-18T19:23:23;2.10;99.90
4293;DHT22;2160;51.172;6.808;2022-12-18T19:25:52;2.10;99.90
4293;DHT22;2160;51.172;6.808;2022-12-18T19:28:20;2.10;99.90
4293;DHT22;2160;51.172;6.808;2022-12-18T19:30:51;2.10;99.90
4293;DHT22;2160;51.172;6.808;2022-12-18T19:33:19;1.90;99.90
4293;DHT22;2160;51.172;6.808;2022-12-18T19:35:46;2.20;99.90
4293;DHT22;2160;51.172;6.808;2022-12-18T19:38:12;2.30;99.90
4293;DHT22;2160;51.172;6.808;2022-12-18T19:40:39;2.30;99.90
4293;DHT22;2160;51.172;6.808;2022-12-18T19:43:08;2.40;99.90
4293;DHT22;2160;51.172;6.808;2022-12-18T19:45:35;2.50;99.90
4293;DHT22;2160;51.172;6.808;2022-12-18T19:48:02;2.40;99.90
4293;DHT22;2160;51.172;6.808;2022-12-18T19:50:29;2.40;99.90
4293;DHT22;2160;51.172;6.808;2022-12-18T19:52:56;2.30;99.90
4293;DHT22;2160;51.172;6.808;2022-12-18T19:55:23;2.00;99.90
4293;DHT22;2160;51.172;6.808;2022-12-18T19:57:50;2.10;99.90
4293;DHT22;2160;51.172;6.808;2022-12-18T20:00:19;2.20;99.90
4293;DHT22;2160;51.172;6.808;2022-12-18T20:02:45;2.00;99.90
4293;DHT22;2160;51.172;6.808;2022-12-18T20:05:12;2.00;99.90
4293;DHT22;2160;51.172;6.808;2022-12-18T20:07:39;2.10;99.90
4293;DHT22;2160;51.172;6.808;2022-12-18T20:10:10;2.20;99.90
4293;DHT22;2160;51.172;6.808;2022-12-18T20:12:39;2.40;99.90
4293;DHT22;2160;51.172;6.808;2022-12-18T20:15:07;2.30;99.90
4293;DHT22;2160;51.172;6.808;2022-12-18T20:17:35;2.40;99.90
4293;DHT22;2160;51.172;6.808;2022-12-18T20:20:03;2.40;99.90
4293;DHT22;2160;51.172;6.808;2022-12-18T20:22:30;2.50;99.90
4293;DHT22;2160;51.172;6.808;2022-12-18T20:24:57;2.60;99.90
4293;DHT22;2160;51.172;6.808;2022-12-18T20:27:32;2.60;99.90
4293;DHT22;2160;51.172;6.808;2022-12-18T20:29:59;2.50;99.90
4293;DHT22;2160;51.172;6.808;2022-12-18T20:32:25;2.50;99.90
4293;DHT22;2160;51.172;6.808;2022-12-18T20:34:54;2.50;99.90
4293;DHT22;2160;51.172;6.808;2022-12-18T20:37:20;2.30;99.90
4293;DHT22;2160;51.172;6.808;2022-12-18T20:39:47;2.50;99.90
4293;DHT22;2160;51.172;6.808;2022-12-18T20:42:16;2.40;99.90
4293;DHT22;2160;51.172;6.808;2022-12-18T20:44:43;2.50;99.90
4293;DHT22;2160;51.172;6.808;2022-12-18T20:47:10;2.60;99.90
4293;DHT22;2160;51.172;6.808;2022-12-18T20:49:37;2.70;99.90
4293;DHT22;2160;51.172;6.808;2022-12-18T20:52:05;2.70;99.90
4293;DHT22;2160;51.172;6.808;2022-12-18T20:54:32;2.60;99.90
4293;DHT22;2160;51.172;6.808;2022-12-18T20:56:59;2.50;99.90
4293;DHT22;2160;51.172;6.808;2022-12-18T20:59:26;2.40;99.90
4293;DHT22;2160;51.172;6.808;2022-12-18T21:01:53;2.30;99.90
4293;DHT22;2160;51.172;6.808;2022-12-18T21:04:21;2.50;99.90
4293;DHT22;2160;51.172;6.808;2022-12-18T21:06:48;2.50;99.90
4293;DHT22;2160;51.172;6.808;2022-12-18T21:09:18;2.50;99.90
4293;DHT22;2160;51.172;6.808;2022-12-18T21:11:45;2.50;99.90
4293;DHT22;2160;51.172;6.808;2022-12-18T21:14:29;2.50;99.90
4293;DHT22;2160;51.172;6.808;2022-12-18T21:16:56;2.60;99.90
4293;DHT22;2160;51.172;6.808;2022-12-18T21:19:26;2.70;99.90
4293;DHT22;2160;51.172;6.808;2022-12-18T21:21:54;2.70;99.90
4293;DHT22;2160;51.172;6.808;2022-12-18T21:24:22;2.50;99.90
4293;DHT22;2160;51.172;6.808;2022-12-18T21:26:52;2.80;99.90
4293;DHT22;2160;51.172;6.808;2022-12-18T21:29:20;2.80;99.90
4293;DHT22;2160;51.172;6.808;2022-12-18T21:31:49;2.70;99.90
4293;DHT22;2160;51.172;6.808;2022-12-18T21:34:17;2.90;99.90
4293;DHT22;2160;51.172;6.808;2022-12-18T21:36:45;2.90;99.90
4293;DHT22;2160;51.172;6.808;2022-12-18T21:39:12;2.90;99.90